Time;durP1;ratioP1;P1;durP2;ratioP2;P2;SDS_P1;SDS_P2;PMS_P1;PMS_P2;Temp;Humidity;BMP_temperature;BMP_pressure;BME280_temperature;BME280_humidity;BME280_pressure;Samples;Min_cycle;Max_cycle;Signal;HPM_P1;HPM_P2
2023/08/23 00:00:52;;;;;;;17.50;12.98;;;20.20;99.90;;;;;;5033357;28;20471;-75
2023/08/23 00:03:17;;;;;;;18.02;13.23;;;20.20;99.90;;;;;;5034330;28;20113;-75
2023/08/23 00:05:43;;;;;;;16.30;12.68;;;20.20;99.90;;;;;;5034663;28;20036;-77
2023/08/23 00:08:09;;;;;;;16.52;13.60;;;20.20;99.90;;;;;;5034048;28;20026;-75
2023/08/23 00:10:35;;;;;;;17.13;14.02;;;20.30;99.90;;;;;;5034492;28;20096;-77
2023/08/23 00:13:00;;;;;;;20.02;13.82;;;20.20;99.90;;;;;;5033819;28;20068;-75
2023/08/23 00:15:26;;;;;;;20.40;13.93;;;20.20;99.90;;;;;;5034495;28;20026;-74
2023/08/23 00:17:52;;;;;;;17.45;14.77;;;20.20;99.90;;;;;;5031241;28;20052;-75
2023/08/23 00:20:17;;;;;;;23.52;14.75;;;20.20;99.90;;;;;;5026092;28;20043;-74
2023/08/23 00:22:43;;;;;;;19.13;15.60;;;20.20;99.90;;;;;;5034058;28;20063;-74
2023/08/23 00:25:08;;;;;;;24.75;17.58;;;20.20;99.90;;;;;;5032812;28;20112;-74
2023/08/23 00:27:34;;;;;;;26.27;15.38;;;20.20;99.90;;;;;;5032494;28;20061;-75
2023/08/23 00:29:59;;;;;;;22.25;16.45;;;20.10;99.90;;;;;;5033965;28;20029;-77
2023/08/23 00:32:25;;;;;;;19.42;15.38;;;20.00;99.90;;;;;;5032820;28;20028;-77
2023/08/23 00:34:51;;;;;;;15.95;13.50;;;20.00;99.90;;;;;;5032584;28;20360;-75
2023/08/23 00:37:16;;;;;;;18.65;13.70;;;19.90;99.90;;;;;;5033404;28;20053;-77
2023/08/23 00:39:43;;;;;;;16.40;13.18;;;19.90;99.90;;;;;;5032427;28;20142;-77
2023/08/23 00:42:09;;;;;;;13.90;12.40;;;19.90;99.90;;;;;;5033629;28;20025;-77
2023/08/23 00:44:34;;;;;;;16.05;13.70;;;19.80;99.90;;;;;;5033821;28;20017;-77
2023/08/23 00:47:00;;;;;;;16.85;14.30;;;19.80;99.90;;;;;;5033425;28;20025;-77
2023/08/23 00:49:32;;;;;;;15.38;13.57;;;19.90;99.90;;;;;;5033522;28;20021;-77
2023/08/23 00:51:58;;;;;;;;;;;19.80;99.90;;;;;;5033179;28;20056;-77
2023/08/23 00:54:23;;;;;;;16.98;14.82;;;19.80;99.90;;;;;;5033555;28;19905;-75
2023/08/23 00:56:50;;;;;;;17.90;15.63;;;19.70;99.90;;;;;;5033254;28;20112;-74
2023/08/23 00:59:16;;;;;;;21.77;16.40;;;19.70;99.90;;;;;;5032957;28;20091;-77
2023/08/23 01:01:42;;;;;;;20.73;16.52;;;19.70;99.90;;;;;;5031634;28;20018;-74
2023/08/23 01:04:07;;;;;;;18.17;16.10;;;19.70;99.90;;;;;;5033285;28;20029;-74
2023/08/23 01:06:54;;;;;;;20.27;16.98;;;19.60;99.90;;;;;;5033306;28;20025;-77
2023/08/23 01:09:36;;;;;;;21.50;17.30;;;19.60;99.90;;;;;;5026174;28;20033;-77
2023/08/23 01:12:22;;;;;;;23.15;18.02;;;19.70;99.90;;;;;;5020554;28;20021;-74
2023/08/23 01:14:47;;;;;;;27.17;20.60;;;19.80;99.90;;;;;;5033423;28;20017;-75
2023/08/23 01:17:15;;;;;;;21.20;18.98;;;19.80;99.90;;;;;;5032952;28;20072;-77
2023/08/23 01:19:49;;;;;;;22.00;17.20;;;19.80;99.90;;;;;;5030887;28;20029;-77
2023/08/23 01:22:20;;;;;;;25.25;19.08;;;19.80;99.90;;;;;;5033124;28;20559;-77
2023/08/23 01:24:47;;;;;;;26.75;19.77;;;19.80;99.90;;;;;;5031510;28;20052;-77
2023/08/23 01:27:14;;;;;;;24.90;18.92;;;19.80;99.90;;;;;;5033046;28;20030;-77
2023/08/23 01:29:39;;;;;;;26.50;19.85;;;19.80;99.90;;;;;;5032618;28;20025;-77
2023/08/23 01:32:14;;;;;;;32.47;19.90;;;19.80;99.90;;;;;;5032881;28;20497;-74
2023/08/23 01:34:46;;;;;;;23.25;19.88;;;19.80;99.90;;;;;;5021195;28;20022;-74
2023/08/23 01:37:12;;;;;;;23.25;18.65;;;19.80;99.90;;;;;;5032623;28;20033;-77
2023/08/23 01:39:39;;;;;;;25.85;20.05;;;19.80;99.90;;;;;;5031578;28;20053;-77
2023/08/23 01:42:06;;;;;;;23.70;18.38;;;19.80;99.90;;;;;;5032561;28;20040;-77
2023/08/23 01:44:31;;;;;;;22.35;17.45;;;19.80;99.90;;;;;;5031633;28;20104;-77
2023/08/23 01:46:57;;;;;;;20.55;17.27;;;19.80;99.90;;;;;;5032493;28;20103;-74
2023/08/23 01:49:23;;;;;;;20.00;16.90;;;19.80;99.90;;;;;;5032630;28;20022;-77
2023/08/23 01:51:48;;;;;;;22.10;17.67;;;19.80;99.90;;;;;;5032359;28;20023;-74
2023/08/23 01:54:14;;;;;;;23.23;18.75;;;19.90;99.90;;;;;;5032043;28;20018;-77
2023/08/23 01:56:39;;;;;;;26.90;17.88;;;19.90;99.90;;;;;;5032618;28;20033;-74
2023/08/23 01:59:05;;;;;;;25.58;19.75;;;19.90;99.90;;;;;;5032345;28;20083;-74
2023/08/23 02:01:31;;;;;;;21.65;17.48;;;20.00;99.90;;;;;;5031934;28;20025;-75
2023/08/23 02:03:57;;;;;;;24.58;19.92;;;20.00;99.90;;;;;;5031069;28;20430;-75
2023/08/23 02:06:23;;;;;;;19.60;16.40;;;20.00;99.90;;;;;;5031175;28;20033;-77
2023/08/23 02:08:49;;;;;;;21.05;17.83;;;20.00;99.90;;;;;;5024365;28;20040;-74
2023/08/23 02:11:15;;;;;;;20.10;17.13;;;19.90;99.90;;;;;;5032427;28;20022;-78
2023/08/23 02:13:40;;;;;;;24.25;18.25;;;19.90;99.90;;;;;;5032357;28;20109;-77
2023/08/23 02:16:06;;;;;;;18.00;15.10;;;19.90;99.90;;;;;;5030552;28;20029;-75
2023/08/23 02:18:32;;;;;;;20.20;16.20;;;20.00;99.90;;;;;;5031051;28;20029;-77
2023/08/23 02:20:58;;;;;;;19.92;15.65;;;20.00;99.90;;;;;;5031275;28;20071;-77
2023/08/23 02:23:24;;;;;;;20.50;16.88;;;19.90;99.90;;;;;;5032234;28;20030;-77
2023/08/23 02:25:50;;;;;;;18.55;16.25;;;19.90;99.90;;;;;;5030785;28;20017;-74
2023/08/23 02:28:16;;;;;;;21.60;15.98;;;19.90;99.90;;;;;;5032349;28;20071;-75
2023/08/23 02:30:41;;;;;;;20.38;15.45;;;19.90;99.90;;;;;;5028551;28;20033;-75
2023/08/23 02:33:07;;;;;;;18.65;14.10;;;20.00;99.90;;;;;;5030931;28;20544;-77
2023/08/23 02:35:33;;;;;;;17.40;14.20;;;19.90;99.90;;;;;;5032335;28;20164;-76
2023/08/23 02:38:01;;;;;;;17.00;14.43;;;19.90;99.90;;;;;;5032234;28;20038;-77
2023/08/23 02:40:27;;;;;;;20.70;14.90;;;19.90;99.90;;;;;;5030876;28;20021;-76
2023/08/23 02:42:55;;;;;;;21.10;16.17;;;19.90;99.90;;;;;;5034409;28;20037;-75
2023/08/23 02:45:21;;;;;;;20.00;15.07;;;19.90;99.90;;;;;;5035880;28;20109;-75
2023/08/23 02:47:46;;;;;;;18.55;15.82;;;19.90;99.90;;;;;;5035932;28;20104;-75
2023/08/23 02:50:12;;;;;;;27.45;16.35;;;19.90;99.90;;;;;;5035893;28;20429;-77
2023/08/23 02:52:38;;;;;;;18.05;15.15;;;19.90;99.90;;;;;;5034656;28;20025;-77
2023/08/23 02:55:04;;;;;;;22.58;16.52;;;19.90;99.90;;;;;;5035839;28;20030;-77
2023/08/23 02:57:29;;;;;;;21.75;16.70;;;19.80;99.90;;;;;;5034524;28;20422;-75
2023/08/23 02:59:55;;;;;;;21.25;18.20;;;19.70;99.90;;;;;;5035449;28;20052;-75
2023/08/23 03:02:20;;;;;;;21.33;16.35;;;19.70;99.90;;;;;;5035769;28;20020;-76
2023/08/23 03:04:46;;;;;;;25.95;17.02;;;19.70;99.90;;;;;;5034384;28;20026;-77
2023/08/23 03:07:12;;;;;;;20.63;15.90;;;19.70;99.90;;;;;;5035479;28;20545;-77
2023/08/23 03:09:38;;;;;;;17.90;15.82;;;19.70;99.90;;;;;;5035448;28;20068;-77
2023/08/23 03:12:04;;;;;;;21.30;17.10;;;19.60;99.90;;;;;;5035530;28;20395;-75
2023/08/23 03:14:30;;;;;;;23.98;18.75;;;19.60;99.90;;;;;;5035324;28;20021;-75
2023/08/23 03:16:55;;;;;;;21.10;18.20;;;19.50;99.90;;;;;;5033789;28;20045;-75
2023/08/23 03:19:21;;;;;;;22.35;18.27;;;19.50;99.90;;;;;;5035425;28;20037;-76
2023/08/23 03:21:46;;;;;;;22.23;17.48;;;19.40;99.90;;;;;;5035340;28;20030;-75
2023/08/23 03:24:12;;;;;;;23.05;16.27;;;19.40;99.90;;;;;;5034158;28;20450;-75
2023/08/23 03:26:38;;;;;;;23.27;17.90;;;19.40;99.90;;;;;;5034990;28;20076;-77
2023/08/23 03:29:04;;;;;;;23.23;17.95;;;19.30;99.90;;;;;;5033993;28;20027;-75
2023/08/23 03:31:29;;;;;;;22.95;18.00;;;19.30;99.90;;;;;;5033971;28;20432;-77
2023/08/23 03:33:55;;;;;;;24.15;17.65;;;19.20;99.90;;;;;;5034042;28;20018;-75
2023/08/23 03:36:21;;;;;;;21.70;17.92;;;19.20;99.90;;;;;;5034676;28;20092;-75
2023/08/23 03:38:47;;;;;;;24.48;18.63;;;19.20;99.90;;;;;;5035064;28;20121;-77
2023/08/23 03:41:13;;;;;;;24.83;19.65;;;19.20;99.90;;;;;;5034851;28;20097;-75
2023/08/23 03:43:39;;;;;;;21.60;18.77;;;19.20;99.90;;;;;;5035054;28;20013;-78
2023/08/23 03:46:05;;;;;;;23.25;18.30;;;19.20;99.90;;;;;;5034724;28;20013;-75
2023/08/23 03:48:30;;;;;;;24.65;19.38;;;19.20;99.90;;;;;;5034938;28;20422;-75
2023/08/23 03:50:59;;;;;;;25.42;19.88;;;19.20;99.90;;;;;;5034649;28;20019;-75
2023/08/23 03:53:26;;;;;;;28.65;20.90;;;19.30;99.90;;;;;;5033637;28;20021;-77
2023/08/23 03:55:54;;;;;;;27.45;20.05;;;19.30;99.90;;;;;;5034756;28;20375;-77
2023/08/23 03:58:20;;;;;;;20.85;18.58;;;19.30;99.90;;;;;;5034529;28;20083;-77
2023/08/23 04:00:51;;;;;;;23.48;19.80;;;19.30;99.90;;;;;;5034218;28;20033;-75
2023/08/23 04:03:17;;;;;;;25.80;20.30;;;19.30;99.90;;;;;;5034508;28;20036;-75
2023/08/23 04:05:42;;;;;;;29.23;21.70;;;19.40;99.90;;;;;;5034944;28;20479;-75
2023/08/23 04:08:08;;;;;;;28.70;19.75;;;19.40;99.90;;;;;;5034593;28;20026;-77
2023/08/23 04:10:34;;;;;;;25.88;20.60;;;19.40;99.90;;;;;;5032914;28;20045;-75
2023/08/23 04:13:00;;;;;;;27.52;20.85;;;19.40;99.90;;;;;;5034314;28;20557;-77
2023/08/23 04:15:26;;;;;;;25.40;19.23;;;19.40;99.90;;;;;;5033099;28;20052;-75
2023/08/23 04:17:52;;;;;;;26.90;20.42;;;19.50;99.90;;;;;;5033790;28;20081;-78
2023/08/23 04:20:18;;;;;;;24.00;19.55;;;19.50;99.90;;;;;;5032242;28;20138;-77
2023/08/23 04:22:43;;;;;;;28.67;19.88;;;19.50;99.90;;;;;;5033666;28;20564;-77
2023/08/23 04:25:10;;;;;;;29.48;22.70;;;19.50;99.90;;;;;;5032618;28;20117;-75
2023/08/23 04:27:36;;;;;;;24.02;20.83;;;19.50;99.90;;;;;;5032828;28;20365;-75
2023/08/23 04:30:02;;;;;;;26.75;20.33;;;19.50;99.90;;;;;;5033592;28;20024;-75
2023/08/23 04:32:27;;;;;;;27.58;21.08;;;19.50;99.90;;;;;;5033712;28;20053;-77
2023/08/23 04:34:53;;;;;;;32.85;21.58;;;19.50;99.90;;;;;;5033817;28;20052;-75
2023/08/23 04:37:19;;;;;;;27.83;20.83;;;19.60;99.90;;;;;;5034193;28;20063;-76
2023/08/23 04:39:44;;;;;;;28.50;21.65;;;19.50;99.90;;;;;;5033701;28;20047;-75
2023/08/23 04:42:10;;;;;;;23.15;19.45;;;19.50;99.90;;;;;;5033604;28;20437;-76
2023/08/23 04:44:35;;;;;;;24.33;19.13;;;19.50;99.90;;;;;;5033614;28;20092;-77
2023/08/23 04:47:01;;;;;;;28.13;23.33;;;19.70;99.90;;;;;;5033742;28;20029;-75
2023/08/23 04:49:27;;;;;;;35.45;25.30;;;19.70;99.90;;;;;;5033772;28;20100;-75
2023/08/23 04:51:52;;;;;;;35.60;23.90;;;19.60;99.90;;;;;;5033725;28;20509;-75
2023/08/23 04:54:18;;;;;;;37.00;26.27;;;19.70;99.90;;;;;;5033414;28;20021;-75
2023/08/23 04:56:43;;;;;;;44.58;28.73;;;19.60;99.90;;;;;;5029647;28;20550;-75
2023/08/23 04:59:09;;;;;;;38.72;25.63;;;19.50;99.90;;;;;;5032927;28;20029;-76
2023/08/23 05:01:35;;;;;;;41.65;26.10;;;19.60;99.90;;;;;;5031561;28;20029;-75
2023/08/23 05:04:00;;;;;;;39.63;27.23;;;19.60;99.90;;;;;;5031584;28;20021;-77
2023/08/23 05:06:26;;;;;;;39.35;27.00;;;19.70;99.90;;;;;;5033228;28;20029;-78
2023/08/23 05:08:51;;;;;;;34.63;25.63;;;19.60;99.90;;;;;;5031231;28;20014;-77
2023/08/23 05:11:17;;;;;;;37.90;25.73;;;19.50;99.90;;;;;;5028800;28;20108;-75
2023/08/23 05:13:43;;;;;;;37.22;26.75;;;19.60;99.90;;;;;;5032347;28;20033;-77
2023/08/23 05:16:08;;;;;;;39.25;26.35;;;19.70;99.90;;;;;;5033133;28;20026;-77
2023/08/23 05:18:34;;;;;;;45.92;27.38;;;19.60;99.90;;;;;;5031829;28;20496;-77
2023/08/23 05:20:59;;;;;;;36.05;23.63;;;19.60;99.90;;;;;;5030513;28;20087;-75
2023/08/23 05:23:25;;;;;;;34.13;25.02;;;19.60;99.90;;;;;;5031349;28;20056;-75
2023/08/23 05:25:52;;;;;;;35.28;24.58;;;19.70;99.90;;;;;;5031842;28;20037;-77
2023/08/23 05:28:19;;;;;;;38.28;26.17;;;19.80;99.90;;;;;;5032854;28;20013;-75
2023/08/23 05:30:45;;;;;;;40.97;27.02;;;19.80;99.90;;;;;;5031655;28;20455;-75
2023/08/23 05:33:12;;;;;;;35.25;25.42;;;19.80;99.90;;;;;;5027502;28;20559;-75
2023/08/23 05:35:39;;;;;;;39.83;26.42;;;19.90;99.90;;;;;;5029212;28;20036;-77
2023/08/23 05:38:05;;;;;;;36.30;25.65;;;20.00;99.90;;;;;;5028889;28;20021;-77
2023/08/23 05:40:31;;;;;;;36.63;26.90;;;20.00;99.90;;;;;;5029757;28;20029;-77
2023/08/23 05:42:57;;;;;;;32.63;24.83;;;20.00;99.90;;;;;;5028426;28;20049;-77
2023/08/23 05:45:26;;;;;;;33.00;23.17;;;20.00;99.90;;;;;;5028317;28;20447;-75
2023/08/23 05:47:53;;;;;;;36.78;25.63;;;20.00;99.90;;;;;;5032495;28;20026;-76
2023/08/23 05:50:18;;;;;;;35.53;25.30;;;20.00;99.90;;;;;;5032475;28;20025;-76
2023/08/23 05:52:44;;;;;;;35.55;25.02;;;19.90;99.90;;;;;;5032540;28;20040;-77
2023/08/23 05:55:10;;;;;;;34.90;24.00;;;19.90;99.90;;;;;;5032567;28;20025;-76
2023/08/23 05:57:35;;;;;;;28.55;22.15;;;19.80;99.90;;;;;;5027240;28;20480;-77
2023/08/23 06:00:01;;;;;;;27.17;21.88;;;19.90;99.90;;;;;;5020829;28;20403;-76
2023/08/23 06:02:27;;;;;;;31.80;22.60;;;19.80;99.90;;;;;;5030553;28;20017;-77
2023/08/23 06:04:52;;;;;;;32.97;23.38;;;19.90;99.90;;;;;;5032706;28;20021;-75
2023/08/23 06:07:18;;;;;;;31.15;23.55;;;19.90;99.90;;;;;;5032277;28;20459;-77
2023/08/23 06:09:44;;;;;;;25.40;21.38;;;19.90;99.90;;;;;;5032382;28;20022;-77
2023/08/23 06:12:09;;;;;;;28.25;21.98;;;19.90;99.90;;;;;;5015277;28;20014;-77
2023/08/23 06:14:35;;;;;;;27.15;20.13;;;20.00;99.90;;;;;;5015383;28;20026;-76
2023/08/23 06:17:01;;;;;;;25.40;20.25;;;20.10;99.90;;;;;;5033191;28;20052;-77
2023/08/23 06:19:26;;;;;;;26.42;21.05;;;20.10;99.90;;;;;;5035105;28;20038;-75
2023/08/23 06:21:52;;;;;;;24.77;19.58;;;20.20;99.90;;;;;;5018916;28;20034;-75
2023/08/23 06:24:17;;;;;;;26.58;19.77;;;20.20;99.90;;;;;;5027237;28;20021;-76
2023/08/23 06:26:44;;;;;;;26.23;20.80;;;20.30;99.90;;;;;;5026452;28;20034;-75
2023/08/23 06:29:09;;;;;;;22.63;18.35;;;20.40;99.90;;;;;;5028867;28;20017;-77
2023/08/23 06:31:35;;;;;;;29.55;21.05;;;20.50;99.90;;;;;;5034941;28;20017;-76
2023/08/23 06:34:01;;;;;;;27.52;21.13;;;20.40;99.90;;;;;;5036224;28;20017;-76
2023/08/23 06:36:26;;;;;;;26.25;21.42;;;20.40;99.90;;;;;;5034748;28;20028;-75
2023/08/23 06:38:52;;;;;;;27.83;21.80;;;20.50;99.90;;;;;;5024881;28;20409;-76
2023/08/23 06:41:18;;;;;;;25.23;20.65;;;20.40;99.90;;;;;;5031274;28;20064;-77
2023/08/23 06:43:47;;;;;;;30.13;23.02;;;20.50;99.90;;;;;;5029848;28;20072;-76
2023/08/23 06:46:13;;;;;;;29.90;21.00;;;20.50;99.90;;;;;;5025221;28;20091;-75
2023/08/23 06:48:38;;;;;;;34.35;22.83;;;20.50;99.90;;;;;;5035892;28;20507;-76
2023/08/23 06:51:04;;;;;;;29.48;23.73;;;20.40;99.90;;;;;;5021060;28;20471;-77
2023/08/23 06:53:31;;;;;;;32.80;25.13;;;20.30;99.90;;;;;;5017031;28;20081;-77
2023/08/23 06:55:57;;;;;;;29.20;23.38;;;20.30;99.90;;;;;;5031039;28;20510;-77
2023/08/23 06:58:22;;;;;;;32.17;23.20;;;20.30;99.90;;;;;;5035706;28;20104;-76
2023/08/23 07:00:48;;;;;;;32.90;24.08;;;20.30;99.90;;;;;;5032192;28;20109;-76
2023/08/23 07:03:13;;;;;;;28.77;23.55;;;20.50;99.90;;;;;;5035501;28;20037;-75
2023/08/23 07:05:39;;;;;;;27.58;22.75;;;20.50;99.90;;;;;;5033443;28;20025;-76
2023/08/23 07:08:05;;;;;;;28.20;23.10;;;20.50;99.90;;;;;;5035325;28;20084;-76
2023/08/23 07:10:31;;;;;;;28.48;24.52;;;20.60;99.90;;;;;;5035466;28;20017;-77
2023/08/23 07:12:56;;;;;;;27.52;20.60;;;20.50;99.90;;;;;;5035551;28;20030;-75
2023/08/23 07:15:23;;;;;;;25.70;20.13;;;20.50;99.90;;;;;;5035984;28;20022;-75
2023/08/23 07:17:49;;;;;;;26.90;19.30;;;20.70;99.90;;;;;;5035512;28;20065;-76
2023/08/23 07:20:15;;;;;;;26.92;19.70;;;20.80;99.90;;;;;;5034853;28;20033;-75
2023/08/23 07:22:41;;;;;;;20.52;17.42;;;20.90;99.90;;;;;;5034339;28;20036;-77
2023/08/23 07:25:08;;;;;;;23.20;16.75;;;21.10;99.90;;;;;;5033388;28;20108;-76
2023/08/23 07:27:33;;;;;;;22.48;17.13;;;21.50;99.90;;;;;;5033780;28;20022;-77
2023/08/23 07:30:00;;;;;;;20.77;16.92;;;21.80;99.90;;;;;;5028579;28;20033;-77
2023/08/23 07:32:30;;;;;;;22.38;19.35;;;21.80;99.90;;;;;;5035140;28;20079;-77
2023/08/23 07:34:56;;;;;;;23.70;17.88;;;21.90;99.90;;;;;;5024725;28;20060;-77
2023/08/23 07:37:22;;;;;;;21.15;18.45;;;21.80;99.90;;;;;;5030704;28;20014;-77
2023/08/23 07:39:48;;;;;;;20.92;16.67;;;21.70;99.90;;;;;;5029372;28;20387;-77
2023/08/23 07:42:14;;;;;;;18.92;16.65;;;21.70;99.90;;;;;;5030896;28;20024;-77
2023/08/23 07:44:39;;;;;;;20.92;16.17;;;21.80;99.90;;;;;;5030778;28;20017;-77
2023/08/23 07:47:05;;;;;;;18.60;15.43;;;22.00;99.90;;;;;;5031199;28;20100;-76
2023/08/23 07:49:30;;;;;;;20.55;15.43;;;22.30;99.90;;;;;;5034799;28;20028;-77
2023/08/23 07:51:57;;;;;;;16.85;14.35;;;22.50;99.90;;;;;;5033555;28;20029;-77
2023/08/23 07:54:22;;;;;;;16.65;14.23;;;22.60;99.90;;;;;;5031435;28;20035;-78
2023/08/23 07:56:48;;;;;;;17.77;14.35;;;22.80;99.90;;;;;;5032460;28;20013;-75
2023/08/23 07:59:14;;;;;;;21.67;16.13;;;23.00;99.90;;;;;;5032426;28;20040;-76
2023/08/23 08:01:39;;;;;;;15.50;13.18;;;23.30;99.90;;;;;;5033959;28;20037;-76
2023/08/23 08:04:05;;;;;;;13.55;12.25;;;23.40;99.90;;;;;;5031851;28;20053;-76
2023/08/23 08:06:30;;;;;;;14.45;12.95;;;23.60;99.90;;;;;;5033183;28;20424;-78
2023/08/23 08:08:56;;;;;;;14.20;11.60;;;23.80;99.90;;;;;;5033202;28;20040;-78
2023/08/23 08:11:22;;;;;;;13.25;12.00;;;24.00;99.90;;;;;;5032073;28;20022;-76
2023/08/23 08:13:47;;;;;;;12.70;11.40;;;24.10;99.90;;;;;;5033384;28;20053;-77
2023/08/23 08:16:14;;;;;;;18.00;13.00;;;24.10;99.90;;;;;;5032997;28;20108;-78
2023/08/23 08:18:40;;;;;;;12.45;11.18;;;24.20;99.90;;;;;;5028014;28;20029;-78
2023/08/23 08:21:06;;;;;;;12.45;11.15;;;24.20;99.90;;;;;;5034356;28;20383;-76
2023/08/23 08:23:32;;;;;;;14.77;12.30;;;24.30;99.90;;;;;;5021304;28;20029;-78
2023/08/23 08:25:58;;;;;;;15.77;12.20;;;24.40;99.90;;;;;;5034103;28;20029;-78
2023/08/23 08:28:24;;;;;;;12.25;10.98;;;24.50;98.30;;;;;;5016528;28;20030;-78
2023/08/23 08:30:49;;;;;;;11.75;10.45;;;24.60;96.40;;;;;;5015477;28;20108;-78
2023/08/23 08:33:16;;;;;;;12.02;10.75;;;24.70;96.60;;;;;;5021855;28;20134;-76
2023/08/23 08:35:43;;;;;;;12.00;10.48;;;24.70;93.90;;;;;;5034025;28;20026;-78
2023/08/23 08:38:08;;;;;;;11.45;10.25;;;24.80;93.30;;;;;;5032306;28;20104;-76
2023/08/23 08:40:37;;;;;;;12.98;11.38;;;24.60;92.10;;;;;;5033349;28;20519;-76
2023/08/23 08:43:03;;;;;;;12.40;9.68;;;24.70;92.90;;;;;;5033525;28;20021;-76
2023/08/23 08:45:28;;;;;;;10.88;9.88;;;24.80;91.70;;;;;;5032813;28;20024;-75
2023/08/23 08:47:54;;;;;;;13.05;10.98;;;25.10;91.40;;;;;;5032322;28;20475;-78
2023/08/23 08:50:20;;;;;;;14.45;12.88;;;25.30;91.70;;;;;;5033767;28;20075;-79
2023/08/23 08:52:53;;;;;;;12.30;11.00;;;25.50;88.90;;;;;;5026854;28;20026;-78
2023/08/23 08:55:21;;;;;;;14.25;12.00;;;25.50;89.20;;;;;;5031709;28;20483;-76
2023/08/23 08:57:49;;;;;;;13.55;12.10;;;25.20;88.10;;;;;;5032262;28;20125;-75
2023/08/23 09:00:15;;;;;;;12.57;8.93;;;25.10;88.30;;;;;;5033301;28;20030;-77
2023/08/23 09:02:44;;;;;;;11.15;9.95;;;25.30;88.80;;;;;;5031800;28;20087;-76
2023/08/23 09:05:10;;;;;;;10.07;9.07;;;25.60;87.00;;;;;;5025343;28;20465;-78
2023/08/23 09:07:37;;;;;;;18.27;8.15;;;25.40;85.90;;;;;;5033550;28;20088;-78
2023/08/23 09:10:03;;;;;;;8.57;7.72;;;25.50;83.80;;;;;;5026033;28;20009;-77
2023/08/23 09:12:29;;;;;;;9.38;7.65;;;25.50;82.50;;;;;;5032031;28;20053;-78
2023/08/23 09:14:56;;;;;;;8.80;7.78;;;25.70;82.80;;;;;;5032032;28;20052;-77
2023/08/23 09:17:22;;;;;;;8.02;7.05;;;25.80;81.50;;;;;;5030496;28;20439;-78
2023/08/23 09:19:48;;;;;;;11.25;7.40;;;26.00;80.70;;;;;;5030970;28;20034;-76
2023/08/23 09:22:20;;;;;;;9.60;7.25;;;25.90;80.40;;;;;;5031338;28;20020;-77
2023/08/23 09:24:46;;;;;;;9.43;7.90;;;25.60;79.10;;;;;;5031357;28;20098;-76
2023/08/23 09:27:11;;;;;;;11.25;8.88;;;25.50;81.20;;;;;;5031388;28;20025;-76
2023/08/23 09:29:38;;;;;;;8.65;7.75;;;25.30;81.10;;;;;;5029633;28;20391;-76
2023/08/23 09:32:06;;;;;;;7.10;6.00;;;25.10;81.50;;;;;;5030770;28;20064;-76
2023/08/23 09:34:32;;;;;;;7.72;6.78;;;25.30;80.30;;;;;;5031007;28;20060;-78
2023/08/23 09:37:08;;;;;;;7.30;6.55;;;25.50;79.50;;;;;;5033087;28;20061;-78
2023/08/23 09:39:34;;;;;;;8.15;7.25;;;25.80;78.50;;;;;;5038105;28;20109;-76
2023/08/23 09:42:05;;;;;;;9.63;6.35;;;26.10;76.80;;;;;;5033062;28;20032;-78
2023/08/23 09:44:39;;;;;;;8.50;7.15;;;26.20;74.70;;;;;;5032802;28;20487;-76
2023/08/23 09:47:08;;;;;;;9.23;7.40;;;26.40;77.50;;;;;;5032563;28;20048;-78
2023/08/23 09:49:34;;;;;;;7.53;6.72;;;26.00;78.60;;;;;;5031455;28;20109;-76
2023/08/23 09:52:01;;;;;;;9.75;6.82;;;25.70;78.90;;;;;;5032904;28;20068;-76
2023/08/23 09:54:41;;;;;;;10.82;7.40;;;25.50;81.90;;;;;;5032028;28;20022;-78
2023/08/23 09:57:07;;;;;;;9.18;7.78;;;25.50;83.10;;;;;;5032840;28;20025;-78
2023/08/23 09:59:33;;;;;;;11.60;6.80;;;25.30;85.40;;;;;;5031462;28;20030;-75
2023/08/23 10:02:01;;;;;;;11.98;9.07;;;25.10;85.60;;;;;;5032596;28;20024;-78
2023/08/23 10:04:28;;;;;;;23.98;16.40;;;25.00;85.70;;;;;;5032784;28;20029;-78
2023/08/23 10:06:56;;;;;;;11.23;8.80;;;25.20;83.80;;;;;;5032593;28;20036;-76
2023/08/23 10:09:22;;;;;;;6.90;6.10;;;25.30;80.40;;;;;;5031428;28;20025;-78
2023/08/23 10:11:49;;;;;;;8.57;7.10;;;25.60;78.80;;;;;;5032596;28;20033;-77
2023/08/23 10:14:15;;;;;;;9.95;7.07;;;26.00;78.90;;;;;;5032664;28;20025;-77
2023/08/23 10:16:42;;;;;;;7.43;6.57;;;26.10;76.20;;;;;;5031885;28;20073;-78
2023/08/23 10:19:08;;;;;;;7.97;7.20;;;26.20;73.90;;;;;;5032579;28;20042;-76
2023/08/23 10:21:34;;;;;;;9.85;7.25;;;26.30;74.80;;;;;;5030802;28;20026;-76
2023/08/23 10:24:04;;;;;;;7.75;7.05;;;26.50;73.20;;;;;;5032568;28;20382;-78
2023/08/23 10:26:42;;;;;;;11.70;7.40;;;26.50;71.10;;;;;;5030991;28;20026;-76
2023/08/23 10:29:09;;;;;;;8.32;6.35;;;26.50;70.60;;;;;;5031130;28;20033;-78
2023/08/23 10:31:35;;;;;;;6.85;6.25;;;26.70;71.90;;;;;;5032194;28;20096;-78
2023/08/23 10:34:01;;;;;;;9.30;6.85;;;26.80;73.30;;;;;;5030584;28;20117;-76
2023/08/23 10:36:29;;;;;;;7.93;7.13;;;26.50;71.40;;;;;;5032545;28;20028;-76
2023/08/23 10:38:58;;;;;;;7.25;6.30;;;26.10;74.20;;;;;;5032338;28;20049;-77
2023/08/23 10:41:25;;;;;;;8.35;7.28;;;25.90;74.50;;;;;;5032216;28;20479;-76
2023/08/23 10:43:52;;;;;;;8.00;7.20;;;25.80;73.90;;;;;;5031923;28;20033;-78
2023/08/23 10:46:19;;;;;;;7.65;6.13;;;26.00;73.50;;;;;;5032072;28;20025;-76
2023/08/23 10:48:46;;;;;;;7.15;6.15;;;25.90;73.50;;;;;;5031040;28;20022;-77
2023/08/23 10:51:12;;;;;;;6.97;6.35;;;25.70;73.30;;;;;;5031504;28;20391;-75
2023/08/23 10:53:40;;;;;;;7.35;6.18;;;25.90;74.10;;;;;;5031074;28;20109;-76
2023/08/23 10:56:07;;;;;;;7.82;5.82;;;26.20;74.30;;;;;;5032179;28;20021;-78
2023/08/23 10:58:33;;;;;;;6.53;5.93;;;26.60;71.40;;;;;;5030832;28;20383;-78
2023/08/23 11:00:59;;;;;;;8.55;6.05;;;26.50;71.00;;;;;;5031075;28;20028;-77
2023/08/23 11:03:36;;;;;;;15.02;10.73;;;26.40;70.90;;;;;;5033897;28;20018;-78
2023/08/23 11:06:02;;;;;;;11.35;9.95;;;26.10;71.60;;;;;;5035006;28;20021;-76
2023/08/23 11:08:29;;;;;;;7.93;6.82;;;25.90;72.20;;;;;;5034297;28;20056;-75
2023/08/23 11:10:55;;;;;;;7.68;5.97;;;26.20;73.60;;;;;;5035852;28;20021;-75
2023/08/23 11:13:20;;;;;;;7.72;5.47;;;26.20;74.30;;;;;;5035470;28;20048;-78
2023/08/23 11:15:46;;;;;;;6.03;5.47;;;26.30;75.60;;;;;;5035592;28;20043;-76
2023/08/23 11:18:13;;;;;;;9.65;6.30;;;26.20;74.10;;;;;;5035297;28;20486;-78
2023/08/23 11:20:38;;;;;;;6.60;6.00;;;26.30;72.50;;;;;;5035608;28;20033;-78
2023/08/23 11:23:04;;;;;;;6.75;6.10;;;26.50;71.00;;;;;;5035135;28;20094;-79
2023/08/23 11:25:31;;;;;;;7.43;5.68;;;26.80;71.30;;;;;;5034499;28;20099;-79
2023/08/23 11:27:57;;;;;;;7.05;5.35;;;26.90;70.20;;;;;;5035150;28;20030;-79
2023/08/23 11:30:23;;;;;;;8.27;5.88;;;27.00;72.00;;;;;;5034280;28;20072;-77
2023/08/23 11:32:48;;;;;;;7.22;5.55;;;26.80;70.00;;;;;;5033995;28;20022;-79
2023/08/23 11:35:17;;;;;;;8.38;5.65;;;26.30;72.10;;;;;;5033902;28;20120;-78
2023/08/23 11:37:42;;;;;;;5.82;5.30;;;26.10;75.20;;;;;;5034997;28;20026;-79
2023/08/23 11:40:10;;;;;;;6.13;5.53;;;25.90;76.10;;;;;;5034778;28;20376;-77
2023/08/23 11:42:36;;;;;;;7.10;6.30;;;25.90;75.20;;;;;;5034570;28;20041;-77
2023/08/23 11:45:05;;;;;;;6.00;5.50;;;25.70;74.30;;;;;;5035084;28;20026;-79
2023/08/23 11:47:32;;;;;;;8.73;5.80;;;25.80;75.10;;;;;;5034981;28;20026;-78
2023/08/23 11:49:58;;;;;;;5.88;5.28;;;26.20;74.20;;;;;;5033884;28;20398;-79
2023/08/23 11:52:27;;;;;;;6.32;5.70;;;26.50;73.30;;;;;;5034195;28;20014;-77
2023/08/23 11:54:53;;;;;;;10.48;5.85;;;26.30;73.40;;;;;;5034926;28;20021;-79
2023/08/23 11:57:19;;;;;;;7.95;6.40;;;26.10;76.60;;;;;;5034801;28;20013;-78
2023/08/23 11:59:45;;;;;;;6.68;6.00;;;25.90;74.80;;;;;;5033403;28;20129;-79
2023/08/23 12:02:11;;;;;;;6.70;5.28;;;25.70;76.50;;;;;;5033520;28;20923;-79
2023/08/23 12:04:42;;;;;;;8.18;6.25;;;25.80;76.90;;;;;;5034834;28;20092;-79
2023/08/23 12:07:11;;;;;;;8.02;5.57;;;25.90;77.60;;;;;;5033265;28;20063;-77
2023/08/23 12:09:39;;;;;;;7.53;6.05;;;26.00;75.30;;;;;;5034764;28;20356;-77
2023/08/23 12:12:05;;;;;;;8.40;6.40;;;25.90;75.00;;;;;;5034394;28;20389;-79
2023/08/23 12:14:31;;;;;;;9.98;5.68;;;25.90;74.90;;;;;;5032358;28;20029;-77
2023/08/23 12:16:57;;;;;;;10.05;7.03;;;25.90;74.70;;;;;;5032671;28;20045;-77
2023/08/23 12:19:22;;;;;;;7.95;5.85;;;25.80;75.10;;;;;;5034577;28;20087;-78
2023/08/23 12:21:49;;;;;;;6.68;6.07;;;25.70;75.40;;;;;;5032876;28;20538;-79
2023/08/23 12:24:15;;;;;;;6.10;5.50;;;25.60;74.30;;;;;;5034166;28;20360;-79
2023/08/23 12:26:41;;;;;;;10.02;5.82;;;25.50;75.70;;;;;;5033463;28;20075;-78
2023/08/23 12:29:06;;;;;;;6.47;5.88;;;25.60;75.80;;;;;;5034155;28;20049;-79